Time;durP1;ratioP1;P1;durP2;ratioP2;P2;SDS_P1;SDS_P2;PMS_P1;PMS_P2;Temp;Humidity;BMP_temperature;BMP_pressure;BME280_temperature;BME280_humidity;BME280_pressure;Samples;Min_cycle;Max_cycle;Signal;HPM_P1;HPM_P2
2022/01/13 00:01:50;;;;;;;12.20;8.60;;;;;;;21.22;32.58;102707.66;104580;1305;72826;-84
2022/01/13 00:04:42;;;;;;;12.40;8.90;;;;;;;21.23;32.63;102702.80;104480;1307;76021;-83
2022/01/13 00:07:16;;;;;;;11.90;8.60;;;;;;;21.23;32.65;102701.70;104323;1313;61539;-83
2022/01/13 00:09:43;;;;;;;11.70;8.00;;;;;;;21.23;32.72;102704.23;104326;1312;61147;-84
2022/01/13 00:12:21;;;;;;;12.90;9.40;;;;;;;21.24;32.71;102707.95;104326;1312;71892;-85
2022/01/13 00:15:37;;;;;;;15.00;9.70;;;;;;;21.23;32.77;102703.66;104338;1312;73483;-84
2022/01/13 00:18:13;;;;;;;13.30;10.60;;;;;;;21.24;32.70;102700.42;104361;1312;61136;-84
2022/01/13 00:24:00;;;;;;;13.10;10.60;;;;;;;21.24;32.53;102691.82;103693;1314;72955;-82
2022/01/13 00:26:38;;;;;;;14.10;11.10;;;;;;;21.24;32.81;102692.37;104386;1312;75182;-84
2022/01/13 00:29:50;;;;;;;12.40;10.70;;;;;;;21.24;32.58;102692.20;104251;1312;60229;-83
2022/01/13 00:32:20;;;;;;;16.40;11.70;;;;;;;21.24;32.55;102697.92;104230;1312;61173;-81
2022/01/13 00:34:49;;;;;;;14.40;11.50;;;;;;;21.24;32.73;102706.16;104335;1312;72801;-89
2022/01/13 00:37:23;;;;;;;13.40;12.00;;;;;;;21.24;32.70;102707.77;104255;1312;74953;-84
2022/01/13 00:40:02;;;;;;;15.10;11.80;;;;;;;21.25;32.60;102715.23;104335;1312;61295;-83
2022/01/13 00:42:40;;;;;;;14.40;11.40;;;;;;;21.25;32.69;102716.13;104315;1312;61525;-85
2022/01/13 00:45:29;;;;;;;13.80;11.10;;;;;;;21.25;32.65;102714.52;104512;1306;73861;-82
2022/01/13 00:48:17;;;;;;;13.40;11.50;;;;;;;21.26;32.65;102717.54;104544;1306;74854;-84
2022/01/13 00:50:46;;;;;;;12.80;11.30;;;;;;;21.26;32.61;102714.51;104526;1306;61312;-82
2022/01/13 00:53:20;;;;;;;13.20;11.20;;;;;;;21.25;32.69;102714.33;104628;1306;61437;-83
2022/01/13 00:56:06;;;;;;;14.40;11.60;;;;;;;21.26;32.78;102710.91;104690;1306;71885;-82
2022/01/13 00:58:35;;;;;;;13.70;11.90;;;;;;;21.25;32.66;102717.00;104530;1306;74779;-83
2022/01/13 01:01:11;;;;;;;16.00;11.70;;;;;;;21.25;32.65;102712.91;104546;1306;61214;-84
2022/01/13 01:03:49;;;;;;;14.10;11.50;;;;;;;21.25;32.74;102710.02;104804;1306;61283;-84
2022/01/13 01:06:35;;;;;;;15.70;12.00;;;;;;;21.26;32.77;102711.98;104711;1306;73934;-81
2022/01/13 01:09:12;;;;;;;14.00;11.10;;;;;;;21.27;32.78;102712.67;104795;1305;74786;-82
2022/01/13 01:11:58;;;;;;;15.00;11.20;;;;;;;21.26;32.83;102714.84;104553;1305;61591;-83
2022/01/13 01:14:35;;;;;;;13.40;11.30;;;;;;;21.27;32.65;102712.67;104525;1307;61854;-82
2022/01/13 01:17:15;;;;;;;;;;;;;;;;;;;;;
2022/01/13 01:19:51;;;;;;;14.40;11.10;;;;;;;21.27;32.80;102716.05;104568;1307;75793;-83
2022/01/13 01:22:39;;;;;;;13.40;10.40;;;;;;;21.27;32.84;102713.19;104791;1305;61221;-85
2022/01/13 01:28:01;;;;;;;13.70;10.70;;;;;;;21.27;32.93;102704.96;104528;1306;71777;-81
2022/01/13 01:30:43;;;;;;;12.40;10.50;;;;;;;21.28;32.84;102703.14;104591;1308;75873;-81
2022/01/13 01:33:58;;;;;;;13.70;10.70;;;;;;;21.27;32.91;102707.45;104355;1307;326658;-83
2022/01/13 01:36:40;;;;;;;12.90;10.20;;;;;;;21.27;32.91;102702.61;104799;1306;61276;-80
2022/01/13 01:39:26;;;;;;;12.90;10.20;;;;;;;21.28;32.68;102698.83;104586;1306;72684;-89
2022/01/13 01:42:12;;;;;;;13.20;11.20;;;;;;;21.28;32.89;102691.50;104670;1307;74812;-83
2022/01/13 01:44:56;;;;;;;13.30;10.10;;;;;;;21.28;32.85;102693.98;104740;1306;62277;-83
2022/01/13 01:47:44;;;;;;;14.70;10.60;;;;;;;21.28;32.94;102697.95;104645;1306;61548;-84
2022/01/13 01:50:24;;;;;;;12.70;10.00;;;;;;;21.28;32.68;102707.25;104614;1307;72791;-83
2022/01/13 01:53:05;;;;;;;13.10;9.90;;;;;;;21.29;32.80;102705.97;104533;1306;75807;-83
2022/01/13 01:55:53;;;;;;;13.70;10.60;;;;;;;21.29;32.88;102704.72;104794;1306;61293;-84
2022/01/13 01:58:42;;;;;;;15.00;10.20;;;;;;;21.29;32.98;102702.74;104792;1306;61259;-82
2022/01/13 02:01:21;;;;;;;14.10;10.30;;;;;;;21.29;32.94;102703.81;104625;1308;73812;-83
2022/01/13 02:03:52;;;;;;;11.70;9.70;;;;;;;21.30;32.92;102708.63;104596;1307;76044;-84
2022/01/13 02:06:29;;;;;;;13.20;10.30;;;;;;;21.29;32.83;102701.84;104694;1305;61148;-82
2022/01/13 02:09:19;;;;;;;;;;;;;;;;;;;;;
2022/01/13 02:12:02;;;;;;;11.90;9.70;;;;;;;21.29;32.94;102689.11;104514;1307;73877;-82
2022/01/13 02:14:36;;;;;;;12.60;10.00;;;;;;;21.29;32.93;102687.85;104634;1306;75850;-83
2022/01/13 02:17:34;;;;;;;12.50;9.70;;;;;;;21.29;32.77;102692.33;104587;1306;61379;-86
2022/01/13 02:20:25;;;;;;;14.00;9.70;;;;;;;21.30;32.92;102692.15;104643;1306;61291;-83
2022/01/13 02:23:03;;;;;;;13.20;10.00;;;;;;;21.29;32.83;102693.95;104676;1306;72770;-84
2022/01/13 02:25:35;;;;;;;12.00;9.40;;;;;;;21.29;32.97;102697.53;104658;1306;74766;-84
2022/01/13 02:28:23;;;;;;;12.40;9.70;;;;;;;21.29;32.76;102696.65;104561;1307;61347;-87
2022/01/13 02:31:02;;;;;;;11.90;9.90;;;;;;;21.29;32.81;102696.27;104548;1307;61188;-84
2022/01/13 02:33:37;;;;;;;12.40;9.40;;;;;;;21.29;32.63;102696.09;104447;1306;73899;-83
2022/01/13 02:36:42;;;;;;;12.40;9.40;;;;;;;21.30;32.87;102697.87;104553;1306;74778;-82
2022/01/13 02:39:30;;;;;;;13.60;9.50;;;;;;;21.29;32.77;102700.59;104524;1306;61788;-82
2022/01/13 02:42:38;;;;;;;11.90;9.30;;;;;;;21.29;32.91;102701.32;104355;1312;61185;-85
2022/01/13 02:45:20;;;;;;;11.70;9.50;;;;;;;21.29;32.98;102701.66;104309;1313;75339;-84
2022/01/13 02:48:13;;;;;;;11.50;8.80;;;;;;;21.30;33.03;102705.02;104328;1313;74820;-87
2022/01/13 02:50:41;;;;;;;13.20;9.50;;;;;;;21.30;32.93;102707.37;104285;1313;61572;-82
2022/01/13 02:53:20;;;;;;;12.40;9.10;;;;;;;21.30;33.00;102705.75;104286;1313;61217;-84
2022/01/13 02:55:56;;;;;;;;;;;;;;;;;;;;;
2022/01/13 02:58:22;;;;;;;11.50;9.00;;;;;;;21.30;33.02;102709.67;104283;1313;74876;-83
2022/01/13 03:01:14;;;;;;;11.80;8.70;;;;;;;21.29;32.87;102712.74;104270;1313;61671;-81
2022/01/13 03:03:43;;;;;;;11.90;9.50;;;;;;;21.29;32.86;102717.23;103917;1313;61324;-82
2022/01/13 03:06:20;;;;;;;11.90;9.10;;;;;;;21.29;33.07;102719.55;104263;1313;73278;-84
2022/01/13 03:08:54;;;;;;;12.50;9.50;;;;;;;21.30;32.97;102717.92;104226;1313;76166;-84
2022/01/13 03:11:43;;;;;;;12.20;9.20;;;;;;;21.30;32.84;102717.38;104242;1313;61448;-82
2022/01/13 03:14:37;;;;;;;;;;;;;;;;;;;;;
2022/01/13 03:17:22;;;;;;;12.60;9.30;;;;;;;21.29;33.00;102710.96;104337;1312;73040;-84
2022/01/13 03:19:55;;;;;;;12.10;9.20;;;;;;;21.29;33.04;102706.48;104493;1305;75941;-83
2022/01/13 03:22:24;;;;;;;12.10;8.70;;;;;;;21.30;33.04;102705.92;104679;1305;61182;-84
2022/01/13 03:25:23;;;;;;;12.30;8.90;;;;;;;21.30;32.90;102699.66;104535;1307;61335;-85
2022/01/13 03:28:02;;;;;;;14.50;9.30;;;;;;;21.30;33.09;102701.81;104668;1305;73638;-83
2022/01/13 03:30:37;;;;;;;;;;;;;;;21.30;32.89;102693.02;104848;1305;75009;-85
2022/01/13 03:33:26;;;;;;;11.80;8.50;;;;;;;21.28;33.13;102698.85;104808;1305;61142;-84
2022/01/13 03:35:52;;;;;;;;;;;;;;;21.28;32.90;102700.79;104242;1313;61454;-85
2022/01/13 03:38:41;;;;;;;10.60;8.00;;;;;;;21.26;32.84;102697.45;104308;1313;73234;-85
2022/01/13 03:41:47;;;;;;;12.20;8.20;;;;;;;21.28;32.96;102703.67;104253;1313;73675;-83
2022/01/13 03:44:32;;;;;;;11.00;8.20;;;;;;;21.27;32.94;102701.38;104287;1313;61532;-79
2022/01/13 03:47:11;;;;;;;11.10;8.50;;;;;;;21.28;32.92;102703.33;104277;1313;61724;-86
2022/01/13 03:49:41;;;;;;;10.90;8.50;;;;;;;21.28;32.95;102700.77;104295;1313;72804;-84
2022/01/13 03:52:33;;;;;;;10.80;8.30;;;;;;;21.28;32.97;102703.12;104232;1313;75759;-83
2022/01/13 03:55:40;;;;;;;10.40;8.50;;;;;;;21.28;32.83;102706.54;103827;1317;61572;-84
2022/01/13 03:58:47;;;;;;;11.20;8.30;;;;;;;21.28;33.01;102711.02;102741;1326;61318;-85
2022/01/13 04:01:52;;;;;;;13.00;8.60;;;;;;;21.28;33.06;102709.39;103652;1319;72690;-85
2022/01/13 04:04:38;;;;;;;10.80;8.20;;;;;;;21.27;33.20;102707.63;103830;1316;75549;-83
2022/01/13 04:07:14;;;;;;;9.80;8.10;;;;;;;21.28;33.16;102718.34;103671;1317;61332;-84
2022/01/13 04:09:59;;;;;;;10.90;8.30;;;;;;;21.29;32.93;102709.56;103434;1317;61178;-83
2022/01/13 04:12:36;;;;;;;13.90;8.50;;;;;;;21.29;33.09;102708.82;103833;1314;72987;-81
2022/01/13 04:15:12;;;;;;;11.10;8.40;;;;;;;21.29;33.03;102704.14;103980;1313;74965;-83
2022/01/13 04:17:57;;;;;;;;;;;;;;;;;;;;;
2022/01/13 04:20:23;;;;;;;9.90;8.00;;;;;;;21.30;33.01;102707.53;104236;1313;61658;-79
2022/01/13 04:23:09;;;;;;;10.50;7.90;;;;;;;21.30;33.27;102706.45;104221;1313;74083;-83
2022/01/13 04:25:38;;;;;;;10.10;7.90;;;;;;;21.31;33.16;102708.02;104199;1313;75955;-81
2022/01/13 04:28:32;;;;;;;12.30;8.40;;;;;;;21.31;33.15;102703.20;104112;1314;61286;-81
2022/01/13 04:31:01;;;;;;;11.70;8.00;;;;;;;21.31;33.18;102715.55;104227;1313;61326;-83
2022/01/13 04:33:36;;;;;;;10.90;7.90;;;;;;;21.31;33.14;102720.39;104410;1307;73119;-83
2022/01/13 04:36:34;;;;;;;10.20;7.80;;;;;;;21.31;33.24;102723.25;104479;1308;75680;-85
2022/01/13 04:39:10;;;;;;;13.40;8.30;;;;;;;21.31;33.30;102723.79;104561;1307;61735;-83
2022/01/13 04:41:40;;;;;;;11.20;8.50;;;;;;;21.31;33.29;102727.35;104548;1306;61161;-83
2022/01/13 04:44:16;;;;;;;11.20;8.10;;;;;;;21.32;33.28;102731.81;104586;1306;73737;-86
2022/01/13 04:47:10;;;;;;;11.50;8.20;;;;;;;21.32;33.20;102737.36;104551;1307;74018;-84
2022/01/13 04:49:45;;;;;;;10.80;7.50;;;;;;;21.31;33.33;102739.36;104620;1306;61442;-83
2022/01/13 04:52:23;;;;;;;12.40;8.40;;;;;;;21.32;33.43;102736.48;104566;1305;61658;-82
2022/01/13 04:55:10;;;;;;;11.50;8.00;;;;;;;21.32;33.34;102740.77;104618;1306;72706;-84
2022/01/13 04:57:45;;;;;;;13.30;8.20;;;;;;;21.32;33.37;102747.38;104473;1306;74676;-84
2022/01/13 05:00:24;;;;;;;12.50;8.50;;;;;;;21.32;33.47;102743.44;104781;1306;61670;-84
2022/01/13 05:02:58;;;;;;;13.20;8.80;;;;;;;21.32;33.15;102746.14;104571;1306;61163;-84
2022/01/13 05:05:37;;;;;;;14.90;9.40;;;;;;;21.31;33.13;102745.23;104535;1306;73419;-81
2022/01/13 05:08:06;;;;;;;12.00;8.50;;;;;;;21.31;33.07;102736.67;104594;1307;74973;-85
2022/01/13 05:10:35;;;;;;;11.90;8.30;;;;;;;21.31;33.04;102737.59;104758;1305;61367;-79
2022/01/13 05:13:13;;;;;;;15.60;8.70;;;;;;;21.30;33.04;102742.45;104880;1305;61186;-87
2022/01/13 05:15:55;;;;;;;13.50;9.30;;;;;;;21.28;33.02;102748.77;104845;1305;71850;-86
2022/01/13 05:18:47;;;;;;;17.50;10.30;;;;;;;21.27;32.66;102757.44;104712;1306;75974;-82
2022/01/13 05:21:37;;;;;;;17.10;9.90;;;;;;;21.24;32.31;102754.50;104573;1305;61169;-83
2022/01/13 05:24:24;;;;;;;16.70;10.90;;;;;;;21.20;32.06;102757.89;104757;1305;61572;-83
2022/01/13 05:27:01;;;;;;;20.60;12.30;;;;;;;21.17;31.71;102753.71;104816;1305;73410;-82
2022/01/13 05:29:47;;;;;;;22.40;12.60;;;;;;;21.12;31.30;102754.09;104547;1306;75719;-86
2022/01/13 05:32:18;;;;;;;21.40;12.60;;;;;;;21.08;30.98;102758.55;104368;1307;61379;-86
2022/01/13 05:34:47;;;;;;;18.50;12.20;;;;;;;21.04;30.82;102760.15;104489;1308;62051;-80
2022/01/13 05:37:13;;;;;;;20.40;12.00;;;;;;;21.00;30.20;102764.78;104560;1306;72592;-81
2022/01/13 05:40:04;;;;;;;16.30;11.30;;;;;;;20.97;30.04;102766.18;104449;1308;75855;-82
2022/01/13 05:42:30;;;;;;;15.10;10.80;;;;;;;20.93;29.51;102771.87;104467;1306;61965;-82
2022/01/13 05:45:02;;;;;;;18.70;10.80;;;;;;;20.90;29.51;102771.63;104477;1306;61916;-81
2022/01/13 05:47:28;;;;;;;15.50;11.00;;;;;;;20.86;29.24;102771.23;104334;1306;73925;-82
2022/01/13 05:49:57;;;;;;;18.80;11.90;;;;;;;20.81;29.25;102776.80;104313;1306;75848;-81
2022/01/13 05:52:23;;;;;;;17.70;12.60;;;;;;;20.77;28.84;102776.60;104249;1306;60753;-81
2022/01/13 05:54:51;;;;;;;18.90;11.50;;;;;;;20.73;28.81;102778.17;104368;1308;61375;-82
2022/01/13 05:57:17;;;;;;;15.60;11.10;;;;;;;20.70;28.59;102781.35;104502;1308;72944;-80
2022/01/13 05:59:43;;;;;;;16.40;11.00;;;;;;;20.67;28.46;102785.38;104253;1306;61656;-80
2022/01/13 06:02:08;;;;;;;18.60;11.60;;;;;;;20.64;28.43;102791.59;104073;1308;61953;-80
2022/01/13 06:04:36;;;;;;;19.60;11.70;;;;;;;20.60;28.19;102794.21;104212;1306;61306;-81
2022/01/13 06:07:02;;;;;;;19.30;11.30;;;;;;;20.56;28.16;102800.61;104108;1307;60341;-80
2022/01/13 06:09:49;;;;;;;17.90;11.80;;;;;;;20.52;28.08;102803.09;104169;1307;74778;-80
2022/01/13 06:12:16;;;;;;;17.40;10.90;;;;;;;20.50;27.97;102801.73;104186;1306;61164;-80
2022/01/13 06:14:43;;;;;;;17.80;11.60;;;;;;;20.50;27.79;102805.48;104164;1306;61469;-81
2022/01/13 06:17:08;;;;;;;15.20;10.30;;;;;;;20.53;27.79;102809.34;104428;1306;59530;-79
2022/01/13 06:19:34;;;;;;;14.70;10.50;;;;;;;20.56;27.63;102811.19;104203;1308;61393;-82
2022/01/13 06:22:02;;;;;;;23.60;10.50;;;;;;;20.60;27.58;102805.13;104379;1306;61423;-80
2022/01/13 06:24:32;;;;;;;14.80;10.00;;;;;;;20.63;27.49;102803.06;104236;1306;64411;-80
2022/01/13 06:27:00;;;;;;;18.00;9.90;;;;;;;20.66;27.49;102803.81;104352;1306;72652;-80
2022/01/13 06:29:30;;;;;;;15.60;9.80;;;;;;;20.70;27.60;102812.46;104530;1306;75581;-79
2022/01/13 06:31:56;;;;;;;15.70;9.90;;;;;;;20.73;27.68;102815.02;104308;1306;61310;-80
2022/01/13 06:34:31;;;;;;;15.90;9.30;;;;;;;20.77;27.82;102814.55;105121;1306;60625;-80
2022/01/13 06:36:56;;;;;;;14.60;9.40;;;;;;;20.81;28.01;102815.98;104340;1306;61284;-80
2022/01/13 06:39:22;;;;;;;14.50;9.10;;;;;;;20.85;28.12;102817.98;104268;1306;61710;-80
2022/01/13 06:41:48;;;;;;;15.00;9.10;;;;;;;20.89;28.22;102822.18;104294;1307;62520;-80
2022/01/13 06:44:14;;;;;;;12.50;9.00;;;;;;;20.93;28.59;102823.75;104246;1306;61301;-79
2022/01/13 06:46:39;;;;;;;13.80;8.80;;;;;;;20.97;28.75;102817.54;104311;1308;61274;-80
2022/01/13 06:49:06;;;;;;;13.30;8.10;;;;;;;21.00;28.82;102821.36;104236;1307;72691;-80
2022/01/13 06:51:32;;;;;;;16.50;9.00;;;;;;;21.02;29.18;102822.16;103798;1308;75333;-80
2022/01/13 06:53:57;;;;;;;16.40;9.90;;;;;;;21.02;29.16;102826.81;104048;1306;60421;-81
2022/01/13 06:56:24;;;;;;;18.10;10.00;;;;;;;20.97;29.03;102827.55;104057;1308;61379;-85
2022/01/13 06:59:15;;;;;;;25.90;10.10;;;;;;;20.87;29.21;102832.42;103903;1306;61389;-80
2022/01/13 07:01:41;;;;;;;18.80;10.20;;;;;;;20.75;29.14;102832.31;103413;1313;74924;-80
2022/01/13 07:04:09;;;;;;;19.50;9.00;;;;;;;20.70;29.32;102830.18;103694;1313;62246;-81
2022/01/13 07:06:35;;;;;;;14.10;8.90;;;;;;;20.69;29.69;102834.52;103657;1313;61163;-80
2022/01/13 07:09:05;;;;;;;16.90;9.20;;;;;;;20.70;29.66;102834.10;103421;1314;61194;-79
2022/01/13 07:11:32;;;;;;;20.50;9.30;;;;;;;20.73;29.66;102825.42;103916;1313;75315;-81
2022/01/13 07:13:57;;;;;;;19.80;9.20;;;;;;;20.75;29.70;102828.75;103872;1313;61387;-79
2022/01/13 07:16:23;;;;;;;16.10;8.80;;;;;;;20.77;29.88;102835.65;103718;1313;61503;-80
2022/01/13 07:18:48;;;;;;;20.30;9.40;;;;;;;20.79;29.68;102835.77;103715;1313;61307;-81
2022/01/13 07:21:16;;;;;;;22.60;8.50;;;;;;;20.82;29.92;102836.02;103948;1313;62525;-80
2022/01/13 07:23:42;;;;;;;19.20;8.20;;;;;;;20.85;30.09;102839.11;104489;1314;59459;-80
2022/01/13 07:26:07;;;;;;;17.60;8.60;;;;;;;20.88;30.10;102844.91;104470;1313;59372;-80
2022/01/13 07:28:33;;;;;;;16.40;8.40;;;;;;;20.89;30.15;102842.20;103553;1314;61463;-80
2022/01/13 07:30:58;;;;;;;17.00;8.90;;;;;;;20.90;30.08;102840.36;103605;1313;61143;-81
2022/01/13 07:33:24;;;;;;;14.50;8.60;;;;;;;20.91;30.04;102834.94;103915;1313;61435;-80
2022/01/13 07:35:50;;;;;;;12.80;8.50;;;;;;;20.90;29.84;102844.66;103961;1313;59444;-79
2022/01/13 07:38:16;;;;;;;12.00;7.90;;;;;;;20.91;29.80;102857.84;103686;1307;61444;-81
2022/01/13 07:40:41;;;;;;;14.00;7.90;;;;;;;20.93;29.67;102857.40;104995;1308;59864;-79
2022/01/13 07:43:08;;;;;;;14.30;7.30;;;;;;;20.96;29.80;102858.92;105304;1306;59506;-79
2022/01/13 07:45:33;;;;;;;14.00;7.80;;;;;;;20.99;29.96;102866.15;104273;1306;74790;-79
2022/01/13 07:48:01;;;;;;;19.00;7.50;;;;;;;21.02;30.02;102871.91;104047;1308;62504;-80
2022/01/13 07:50:27;;;;;;;14.40;7.40;;;;;;;21.04;30.04;102871.83;104077;1306;61497;-80
2022/01/13 07:52:52;;;;;;;16.60;7.90;;;;;;;21.06;30.35;102870.86;103866;1307;59733;-79
2022/01/13 07:55:18;;;;;;;14.00;7.20;;;;;;;21.06;30.23;102863.91;104519;1306;61165;-80
2022/01/13 07:57:43;;;;;;;12.50;7.40;;;;;;;21.02;30.38;102870.33;104412;1307;59398;-81
2022/01/13 08:00:11;;;;;;;17.20;7.30;;;;;;;20.95;30.35;102872.39;104446;1306;59448;-79
2022/01/13 08:02:37;;;;;;;14.50;8.70;;;;;;;20.82;30.53;102853.20;104558;1306;61301;-79
2022/01/13 08:05:03;;;;;;;11.30;8.30;;;;;;;20.73;30.02;102854.60;104314;1308;61408;-80
2022/01/13 08:07:29;;;;;;;15.30;8.10;;;;;;;20.66;29.70;102859.30;104321;1306;61220;-79
2022/01/13 08:09:57;;;;;;;14.50;8.10;;;;;;;20.64;29.64;102858.86;104013;1306;61341;-85
2022/01/13 08:12:22;;;;;;;14.40;8.40;;;;;;;20.66;29.52;102859.84;104303;1306;61176;-81
2022/01/13 08:14:50;;;;;;;11.00;8.00;;;;;;;20.66;29.64;102852.34;104359;1308;61949;-81
2022/01/13 08:19:45;;;;;;;12.90;8.10;;;;;;;20.63;29.58;102856.90;104432;1307;75744;-81
2022/01/13 08:20:08;;;;;;;11.50;8.60;;;;;;;20.58;29.49;102847.96;104303;1309;61709;-81
2022/01/13 08:22:34;;;;;;;15.40;9.40;;;;;;;20.54;29.36;102846.33;104364;1306;61052;-80
2022/01/13 08:25:00;;;;;;;13.90;8.80;;;;;;;20.51;29.10;102846.44;104632;1306;61258;-81
2022/01/13 08:27:25;;;;;;;12.60;8.80;;;;;;;20.52;28.91;102848.35;104441;1306;61760;-80
2022/01/13 08:29:54;;;;;;;14.60;8.90;;;;;;;20.55;28.89;102852.73;104328;1306;61302;-81
2022/01/13 08:32:22;;;;;;;11.90;8.50;;;;;;;20.58;28.71;102854.21;104241;1306;59259;-81
2022/01/13 08:34:50;;;;;;;14.00;8.40;;;;;;;20.63;28.82;102853.86;104232;1306;74563;-81
2022/01/13 08:37:17;;;;;;;12.80;8.10;;;;;;;20.66;29.04;102843.56;104125;1306;61354;-80
2022/01/13 08:39:55;;;;;;;14.60;9.00;;;;;;;20.70;29.13;102834.47;104275;1305;61386;-80
2022/01/13 08:42:22;;;;;;;14.90;8.80;;;;;;;20.74;29.12;102829.34;104244;1306;61489;-81
2022/01/13 08:44:50;;;;;;;18.80;8.60;;;;;;;20.78;29.39;102829.37;104211;1306;72823;-80
2022/01/13 08:47:19;;;;;;;15.90;8.80;;;;;;;20.77;29.71;102822.41;104167;1307;75857;-80
2022/01/13 08:49:48;;;;;;;11.80;8.30;;;;;;;20.74;29.95;102815.54;104395;1305;61143;-81
2022/01/13 08:52:13;;;;;;;20.70;11.70;;;;;;;20.68;30.05;102802.33;104450;1305;60489;-81
2022/01/13 08:54:41;;;;;;;20.30;10.10;;;;;;;20.62;29.81;102792.89;104046;1307;61306;-83
2022/01/13 08:57:07;;;;;;;33.90;12.50;;;;;;;20.57;30.01;102787.72;104357;1305;75747;-80
2022/01/13 08:59:35;;;;;;;37.00;12.00;;;;;;;20.52;30.15;102793.61;104369;1306;60343;-80
2022/01/13 09:02:01;;;;;;;21.30;11.60;;;;;;;20.48;30.19;102788.79;104490;1307;61136;-82
2022/01/13 09:04:26;;;;;;;25.50;11.50;;;;;;;20.43;30.01;102789.09;103947;1305;61335;-81
2022/01/13 09:06:52;;;;;;;16.20;9.80;;;;;;;20.41;29.99;102790.63;104408;1308;59372;-80
2022/01/13 09:09:18;;;;;;;21.00;11.70;;;;;;;20.39;29.99;102788.58;104022;1306;61400;-82
2022/01/13 09:11:44;;;;;;;18.10;11.20;;;;;;;20.38;29.81;102781.63;104173;1307;61430;-81
2022/01/13 09:14:13;;;;;;;18.80;10.70;;;;;;;20.36;29.92;102774.92;104373;1307;61395;-81
2022/01/13 09:16:43;;;;;;;17.00;10.90;;;;;;;20.33;29.90;102771.05;104476;1306;61407;-81
2022/01/13 09:19:13;;;;;;;16.20;10.60;;;;;;;20.30;29.88;102765.09;103767;1308;61385;-83
2022/01/13 09:21:40;;;;;;;14.70;10.90;;;;;;;20.26;29.62;102765.23;104403;1307;61521;-80
2022/01/13 09:24:17;;;;;;;17.10;12.30;;;;;;;20.23;29.63;102764.83;105208;1307;73943;-80
2022/01/13 09:26:43;;;;;;;22.70;10.90;;;;;;;20.22;29.47;102766.47;105252;1306;75799;-80
2022/01/13 09:29:09;;;;;;;16.60;11.60;;;;;;;20.20;29.26;102761.15;105389;1305;59856;-81
2022/01/13 09:31:35;;;;;;;21.20;12.70;;;;;;;20.19;29.23;102755.84;105213;1305;59982;-80
2022/01/13 09:34:04;;;;;;;17.80;12.20;;;;;;;20.16;28.99;102749.52;105233;1306;59324;-81
2022/01/13 09:36:30;;;;;;;20.40;12.80;;;;;;;20.15;28.88;102751.88;105134;1306;74847;-81
2022/01/13 09:38:56;;;;;;;18.60;11.10;;;;;;;20.13;28.77;102746.60;105108;1305;60522;-82
2022/01/13 09:41:27;;;;;;;17.80;11.60;;;;;;;20.10;28.82;102744.73;105240;1306;59324;-82
2022/01/13 09:43:55;;;;;;;22.70;12.80;;;;;;;20.07;28.73;102745.02;104462;1306;72939;-83
2022/01/13 09:46:26;;;;;;;18.50;12.50;;;;;;;20.04;28.78;102745.50;104526;1306;74689;-82
2022/01/13 09:48:52;;;;;;;19.90;10.90;;;;;;;20.02;28.70;102750.73;104484;1306;61428;-81
2022/01/13 09:51:24;;;;;;;16.30;11.90;;;;;;;20.04;28.53;102750.33;104331;1306;61142;-81
2022/01/13 09:53:50;;;;;;;16.00;11.10;;;;;;;20.04;28.78;102752.30;104417;1306;71722;-81
2022/01/13 09:56:15;;;;;;;16.00;10.50;;;;;;;20.02;28.95;102745.73;104237;1306;61427;-81
2022/01/13 09:58:44;;;;;;;16.00;11.80;;;;;;;20.01;29.05;102738.11;104096;1305;59343;-81
2022/01/13 10:01:12;;;;;;;18.20;10.60;;;;;;;20.00;29.32;102728.12;104625;1306;59561;-80
2022/01/13 10:03:37;;;;;;;18.00;11.00;;;;;;;19.98;29.41;102721.57;104695;1305;72820;-79
2022/01/13 10:06:10;;;;;;;15.50;10.70;;;;;;;19.97;29.57;102736.63;104217;1305;61298;-82
2022/01/13 10:08:44;;;;;;;19.20;11.70;;;;;;;19.98;29.41;102736.24;104482;1306;61278;-82
2022/01/13 10:11:36;;;;;;;22.60;11.50;;;;;;;19.98;29.59;102731.39;104442;1308;60357;-81
2022/01/13 10:17:15;;;;;;;20.30;11.40;;;;;;;20.02;29.71;102724.49;105174;1305;77294;-80
2022/01/13 10:19:42;;;;;;;16.80;11.90;;;;;;;20.02;29.72;102726.26;105354;1305;61328;-80
2022/01/13 10:22:14;;;;;;;16.40;11.10;;;;;;;20.04;29.57;102719.41;105324;1306;60524;-81
2022/01/13 10:24:44;;;;;;;17.90;11.80;;;;;;;20.04;29.56;102723.48;105261;1306;72650;-81
2022/01/13 10:27:11;;;;;;;18.10;11.60;;;;;;;20.05;29.58;102719.73;105361;1305;76354;-80
2022/01/13 10:29:48;;;;;;;15.90;11.00;;;;;;;20.06;29.44;102710.92;104719;1306;61196;-80
2022/01/13 10:32:19;;;;;;;17.40;11.00;;;;;;;20.07;29.37;102703.56;104658;1306;61352;-80
2022/01/13 10:34:48;;;;;;;17.20;11.10;;;;;;;20.05;29.60;102699.31;104660;1305;73982;-81
2022/01/13 10:37:14;;;;;;;20.30;11.00;;;;;;;20.03;29.41;102692.97;104358;1306;75798;-80
2022/01/13 10:39:45;;;;;;;16.50;10.50;;;;;;;20.01;29.40;102682.50;104541;1306;61122;-80
2022/01/13 10:42:45;;;;;;;20.60;11.10;;;;;;;19.98;29.40;102672.60;104426;1305;61307;-80
2022/01/13 10:45:17;;;;;;;15.80;10.90;;;;;;;19.95;29.28;102662.89;104313;1305;72896;-80
2022/01/13 10:47:54;;;;;;;18.20;12.70;;;;;;;19.93;29.31;102664.23;105282;1305;74631;-80
2022/01/13 10:50:20;;;;;;;20.50;12.50;;;;;;;19.90;29.18;102670.91;105220;1306;60157;-81
2022/01/13 10:52:46;;;;;;;17.00;10.90;;;;;;;19.87;29.08;102670.16;105084;1306;59672;-80
2022/01/13 10:55:19;;;;;;;16.10;10.90;;;;;;;19.85;29.17;102666.84;105057;1307;59600;-80
2022/01/13 10:57:45;;;;;;;17.70;11.30;;;;;;;19.83;29.13;102655.30;105231;1305;76151;-80
2022/01/13 11:00:17;;;;;;;17.50;11.40;;;;;;;19.82;29.21;102643.36;105274;1305;59788;-80
2022/01/13 11:02:47;;;;;;;17.10;11.10;;;;;;;19.82;29.13;102635.65;104548;1306;61202;-80
2022/01/13 11:05:14;;;;;;;23.40;11.20;;;;;;;19.83;29.07;102631.52;104353;1306;71801;-81
2022/01/13 11:07:43;;;;;;;18.70;11.60;;;;;;;19.84;29.21;102613.25;104180;1306;75638;-79
2022/01/13 11:10:09;;;;;;;16.80;10.70;;;;;;;19.85;29.10;102600.90;104082;1306;61218;-80
2022/01/13 11:12:38;;;;;;;15.80;10.10;;;;;;;19.86;29.04;102604.45;103889;1306;61424;-79
2022/01/13 11:15:08;;;;;;;20.80;10.70;;;;;;;19.84;28.78;102610.05;104183;1305;74230;-81
2022/01/13 11:17:37;;;;;;;16.70;10.20;;;;;;;19.81;28.77;102621.59;104517;1306;76091;-79
2022/01/13 11:20:12;;;;;;;;;;;;;;;19.80;28.91;102628.92;104001;1307;61973;-80
2022/01/13 11:22:40;;;;;;;16.40;9.60;;;;;;;19.76;28.81;102632.27;105447;1305;60779;-81
2022/01/13 11:25:07;;;;;;;16.10;9.70;;;;;;;19.77;28.90;102636.72;105391;1305;70852;-80
2022/01/13 11:27:34;;;;;;;17.60;10.30;;;;;;;19.78;28.85;102639.70;105183;1307;75087;-82
2022/01/13 11:30:00;;;;;;;14.50;9.30;;;;;;;19.81;28.76;102636.07;104067;1306;61398;-81
2022/01/13 11:32:29;;;;;;;16.20;10.20;;;;;;;19.80;28.65;102630.71;104217;1306;61292;-81
2022/01/13 11:34:55;;;;;;;14.30;9.80;;;;;;;19.80;28.62;102626.62;104318;1306;72901;-81
2022/01/13 11:37:28;;;;;;;15.70;9.70;;;;;;;19.81;28.61;102618.73;104124;1306;75742;-81
2022/01/13 11:39:57;;;;;;;15.90;10.60;;;;;;;19.80;28.51;102603.05;104268;1306;61227;-82
2022/01/13 11:42:25;;;;;;;15.20;10.00;;;;;;;19.80;28.57;102600.34;103877;1306;61747;-80
2022/01/13 11:45:17;;;;;;;12.80;9.70;;;;;;;19.82;28.73;102593.51;104179;1306;73778;-81
2022/01/13 11:47:43;;;;;;;15.40;9.40;;;;;;;19.83;28.60;102589.36;104612;1306;74868;-80
2022/01/13 11:50:31;;;;;;;15.70;9.60;;;;;;;19.84;28.41;102584.14;104319;1307;61352;-81
2022/01/13 11:52:57;;;;;;;15.30;9.40;;;;;;;19.81;28.47;102577.29;104974;1306;61218;-81
2022/01/13 11:55:28;;;;;;;15.90;9.10;;;;;;;19.79;28.49;102576.81;104516;1306;72887;-81